sensor_id;sensor_type;location;lat;lon;timestamp;temperature;humidity
21306;DHT22;10812;51.838;5.838;2022-11-10T00:00:35;9.70;99.90
21306;DHT22;10812;51.838;5.838;2022-11-10T00:03:05;9.70;99.90
21306;DHT22;10812;51.838;5.838;2022-11-10T00:05:36;9.70;99.90
21306;DHT22;10812;51.838;5.838;2022-11-10T00:08:06;9.60;99.90
21306;DHT22;10812;51.838;5.838;2022-11-10T00:10:36;9.70;99.90
21306;DHT22;10812;51.838;5.838;2022-11-10T00:13:24;9.70;99.90
21306;DHT22;10812;51.838;5.838;2022-11-10T00:15:52;9.60;99.90
21306;DHT22;10812;51.838;5.838;2022-11-10T00:18:38;9.60;99.90
21306;DHT22;10812;51.838;5.838;2022-11-10T00:21:08;9.60;99.90
21306;DHT22;10812;51.838;5.838;2022-11-10T00:23:36;9.60;99.90
21306;DHT22;10812;51.838;5.838;2022-11-10T00:26:12;9.60;99.90
21306;DHT22;10812;51.838;5.838;2022-11-10T00:28:41;9.60;99.90
21306;DHT22;10812;51.838;5.838;2022-11-10T00:31:09;9.60;99.90
21306;DHT22;10812;51.838;5.838;2022-11-10T00:33:39;9.60;99.90
21306;DHT22;10812;51.838;5.838;2022-11-10T00:36:08;9.60;99.90
21306;DHT22;10812;51.838;5.838;2022-11-10T00:38:36;9.50;99.90
21306;DHT22;10812;51.838;5.838;2022-11-10T00:41:04;9.50;99.90
21306;DHT22;10812;51.838;5.838;2022-11-10T00:43:34;9.50;99.90
21306;DHT22;10812;51.838;5.838;2022-11-10T00:46:02;9.50;99.90
21306;DHT22;10812;51.838;5.838;2022-11-10T00:48:30;9.60;99.90
21306;DHT22;10812;51.838;5.838;2022-11-10T00:50:58;9.60;99.90
21306;DHT22;10812;51.838;5.838;2022-11-10T00:53:26;9.60;99.90
21306;DHT22;10812;51.838;5.838;2022-11-10T00:55:54;9.60;99.90
21306;DHT22;10812;51.838;5.838;2022-11-10T00:58:22;9.60;99.90
21306;DHT22;10812;51.838;5.838;2022-11-10T01:00:59;9.40;99.90
21306;DHT22;10812;51.838;5.838;2022-11-10T01:03:27;9.40;99.90
21306;DHT22;10812;51.838;5.838;2022-11-10T01:05:55;9.40;99.90
21306;DHT22;10812;51.838;5.838;2022-11-10T01:08:24;9.40;99.90
21306;DHT22;10812;51.838;5.838;2022-11-10T01:10:52;9.40;99.90
21306;DHT22;10812;51.838;5.838;2022-11-10T01:13:27;9.40;99.90
21306;DHT22;10812;51.838;5.838;2022-11-10T01:16:01;9.40;99.90
21306;DHT22;10812;51.838;5.838;2022-11-10T01:18:29;9.40;99.90
21306;DHT22;10812;51.838;5.838;2022-11-10T01:20:57;9.30;99.90
21306;DHT22;10812;51.838;5.838;2022-11-10T01:23:26;9.40;99.90
21306;DHT22;10812;51.838;5.838;2022-11-10T01:25:56;9.40;99.90
21306;DHT22;10812;51.838;5.838;2022-11-10T01:28:24;9.40;99.90
21306;DHT22;10812;51.838;5.838;2022-11-10T01:30:57;9.40;99.90
21306;DHT22;10812;51.838;5.838;2022-11-10T01:33:26;9.40;99.90
21306;DHT22;10812;51.838;5.838;2022-11-10T01:35:54;9.50;99.90
21306;DHT22;10812;51.838;5.838;2022-11-10T01:38:22;9.50;99.90
21306;DHT22;10812;51.838;5.838;2022-11-10T01:40:50;9.50;99.90
21306;DHT22;10812;51.838;5.838;2022-11-10T01:43:18;9.50;99.90
21306;DHT22;10812;51.838;5.838;2022-11-10T01:45:50;9.50;99.90
21306;DHT22;10812;51.838;5.838;2022-11-10T01:48:26;9.50;99.90
21306;DHT22;10812;51.838;5.838;2022-11-10T01:50:57;9.50;99.90
21306;DHT22;10812;51.838;5.838;2022-11-10T01:53:28;9.50;99.90
21306;DHT22;10812;51.838;5.838;2022-11-10T01:55:57;9.40;99.90
21306;DHT22;10812;51.838;5.838;2022-11-10T01:58:32;9.40;99.90
21306;DHT22;10812;51.838;5.838;2022-11-10T02:01:06;9.40;99.90
21306;DHT22;10812;51.838;5.838;2022-11-10T02:03:40;9.40;99.90
21306;DHT22;10812;51.838;5.838;2022-11-10T02:06:10;9.40;99.90
21306;DHT22;10812;51.838;5.838;2022-11-10T02:08:40;9.40;99.90
21306;DHT22;10812;51.838;5.838;2022-11-10T02:11:08;9.30;99.90
21306;DHT22;10812;51.838;5.838;2022-11-10T02:13:36;9.40;99.90
21306;DHT22;10812;51.838;5.838;2022-11-10T02:16:04;9.30;99.90
21306;DHT22;10812;51.838;5.838;2022-11-10T02:18:32;9.30;99.90
21306;DHT22;10812;51.838;5.838;2022-11-10T02:21:04;9.30;99.90
21306;DHT22;10812;51.838;5.838;2022-11-10T02:23:49;9.30;99.90
21306;DHT22;10812;51.838;5.838;2022-11-10T02:26:20;9.30;99.90
21306;DHT22;10812;51.838;5.838;2022-11-10T02:28:49;9.30;99.90
21306;DHT22;10812;51.838;5.838;2022-11-10T02:31:17;9.30;99.90
21306;DHT22;10812;51.838;5.838;2022-11-10T02:33:45;9.40;99.90
21306;DHT22;10812;51.838;5.838;2022-11-10T02:36:15;9.40;99.90
21306;DHT22;10812;51.838;5.838;2022-11-10T02:38:43;9.40;99.90
21306;DHT22;10812;51.838;5.838;2022-11-10T02:41:11;9.40;99.90
21306;DHT22;10812;51.838;5.838;2022-11-10T02:43:39;9.40;99.90
21306;DHT22;10812;51.838;5.838;2022-11-10T02:46:07;9.40;99.90
21306;DHT22;10812;51.838;5.838;2022-11-10T02:48:36;9.50;99.90
21306;DHT22;10812;51.838;5.838;2022-11-10T02:51:04;9.50;99.90
21306;DHT22;10812;51.838;5.838;2022-11-10T02:53:33;9.50;99.90
21306;DHT22;10812;51.838;5.838;2022-11-10T02:56:01;9.50;99.90
21306;DHT22;10812;51.838;5.838;2022-11-10T02:58:29;9.60;99.90
21306;DHT22;10812;51.838;5.838;2022-11-10T03:06:28;9.50;99.90
21306;DHT22;10812;51.838;5.838;2022-11-10T03:08:58;9.50;99.90
21306;DHT22;10812;51.838;5.838;2022-11-10T03:11:26;9.50;99.90
21306;DHT22;10812;51.838;5.838;2022-11-10T03:13:58;9.50;99.90
21306;DHT22;10812;51.838;5.838;2022-11-10T03:16:28;9.50;99.90
21306;DHT22;10812;51.838;5.838;2022-11-10T03:18:56;9.40;99.90
21306;DHT22;10812;51.838;5.838;2022-11-10T03:21:24;9.40;99.90
21306;DHT22;10812;51.838;5.838;2022-11-10T03:23:52;9.40;99.90
21306;DHT22;10812;51.838;5.838;2022-11-10T03:26:22;9.40;99.90
21306;DHT22;10812;51.838;5.838;2022-11-10T03:28:50;9.40;99.90
21306;DHT22;10812;51.838;5.838;2022-11-10T03:31:18;9.40;99.90
21306;DHT22;10812;51.838;5.838;2022-11-10T03:33:46;9.30;99.90
21306;DHT22;10812;51.838;5.838;2022-11-10T03:36:14;9.30;99.90
21306;DHT22;10812;51.838;5.838;2022-11-10T03:38:42;9.30;99.90
21306;DHT22;10812;51.838;5.838;2022-11-10T03:41:10;9.30;99.90
21306;DHT22;10812;51.838;5.838;2022-11-10T03:43:47;9.30;99.90
21306;DHT22;10812;51.838;5.838;2022-11-10T03:46:16;9.20;99.90
21306;DHT22;10812;51.838;5.838;2022-11-10T03:48:45;9.30;99.90
21306;DHT22;10812;51.838;5.838;2022-11-10T03:51:19;9.20;99.90
21306;DHT22;10812;51.838;5.838;2022-11-10T03:53:48;9.20;99.90
21306;DHT22;10812;51.838;5.838;2022-11-10T03:56:16;9.10;99.90
21306;DHT22;10812;51.838;5.838;2022-11-10T03:58:44;9.10;99.90
21306;DHT22;10812;51.838;5.838;2022-11-10T04:01:14;9.10;99.90
21306;DHT22;10812;51.838;5.838;2022-11-10T04:03:42;9.10;99.90
21306;DHT22;10812;51.838;5.838;2022-11-10T04:06:17;9.20;99.90
21306;DHT22;10812;51.838;5.838;2022-11-10T04:09:04;9.20;99.90
21306;DHT22;10812;51.838;5.838;2022-11-10T04:11:32;9.10;99.90
21306;DHT22;10812;51.838;5.838;2022-11-10T04:14:17;9.10;99.90
21306;DHT22;10812;51.838;5.838;2022-11-10T04:17:04;9.00;99.90
21306;DHT22;10812;51.838;5.838;2022-11-10T04:19:32;9.00;99.90
21306;DHT22;10812;51.838;5.838;2022-11-10T04:22:00;8.90;99.90
21306;DHT22;10812;51.838;5.838;2022-11-10T04:24:28;8.90;99.90
21306;DHT22;10812;51.838;5.838;2022-11-10T04:26:57;8.90;99.90
21306;DHT22;10812;51.838;5.838;2022-11-10T04:29:24;8.90;99.90
21306;DHT22;10812;51.838;5.838;2022-11-10T04:31:52;8.80;99.90
21306;DHT22;10812;51.838;5.838;2022-11-10T04:34:21;8.90;99.90
21306;DHT22;10812;51.838;5.838;2022-11-10T04:36:49;8.90;99.90
21306;DHT22;10812;51.838;5.838;2022-11-10T04:39:17;8.90;99.90
21306;DHT22;10812;51.838;5.838;2022-11-10T04:41:45;8.90;99.90
21306;DHT22;10812;51.838;5.838;2022-11-10T04:44:14;8.90;99.90
21306;DHT22;10812;51.838;5.838;2022-11-10T04:46:42;8.90;99.90
21306;DHT22;10812;51.838;5.838;2022-11-10T04:49:11;8.90;99.90
21306;DHT22;10812;51.838;5.838;2022-11-10T04:51:40;8.90;99.90
21306;DHT22;10812;51.838;5.838;2022-11-10T04:54:10;8.90;99.90
21306;DHT22;10812;51.838;5.838;2022-11-10T04:56:38;9.00;99.90
21306;DHT22;10812;51.838;5.838;2022-11-10T04:59:07;8.90;99.90
21306;DHT22;10812;51.838;5.838;2022-11-10T05:09:18;8.90;99.90
21306;DHT22;10812;51.838;5.838;2022-11-10T05:11:46;8.90;99.90
21306;DHT22;10812;51.838;5.838;2022-11-10T05:14:14;8.90;99.90
21306;DHT22;10812;51.838;5.838;2022-11-10T05:16:42;8.90;99.90
21306;DHT22;10812;51.838;5.838;2022-11-10T05:30:35;8.80;99.90
21306;DHT22;10812;51.838;5.838;2022-11-10T05:33:03;8.70;99.90
21306;DHT22;10812;51.838;5.838;2022-11-10T05:35:31;8.80;99.90
21306;DHT22;10812;51.838;5.838;2022-11-10T05:38:00;8.70;99.90
21306;DHT22;10812;51.838;5.838;2022-11-10T05:40:29;8.70;99.90
21306;DHT22;10812;51.838;5.838;2022-11-10T05:42:57;8.70;99.90
21306;DHT22;10812;51.838;5.838;2022-11-10T05:45:26;8.70;99.90
21306;DHT22;10812;51.838;5.838;2022-11-10T05:47:56;8.70;99.90
21306;DHT22;10812;51.838;5.838;2022-11-10T05:50:24;8.70;99.90
21306;DHT22;10812;51.838;5.838;2022-11-10T05:52:53;8.70;99.90
21306;DHT22;10812;51.838;5.838;2022-11-10T05:55:23;8.70;99.90
21306;DHT22;10812;51.838;5.838;2022-11-10T05:57:52;8.70;99.90
21306;DHT22;10812;51.838;5.838;2022-11-10T06:00:22;8.70;99.90
21306;DHT22;10812;51.838;5.838;2022-11-10T06:03:00;8.70;99.90
21306;DHT22;10812;51.838;5.838;2022-11-10T06:05:30;8.60;99.90
21306;DHT22;10812;51.838;5.838;2022-11-10T06:07:59;8.60;99.90
21306;DHT22;10812;51.838;5.838;2022-11-10T06:10:27;8.60;99.90
21306;DHT22;10812;51.838;5.838;2022-11-10T06:12:56;8.70;99.90
21306;DHT22;10812;51.838;5.838;2022-11-10T06:15:24;8.70;99.90
21306;DHT22;10812;51.838;5.838;2022-11-10T06:17:52;8.70;99.90
21306;DHT22;10812;51.838;5.838;2022-11-10T06:20:23;8.70;99.90
21306;DHT22;10812;51.838;5.838;2022-11-10T06:22:58;8.70;99.90
21306;DHT22;10812;51.838;5.838;2022-11-10T06:25:28;8.70;99.90
21306;DHT22;10812;51.838;5.838;2022-11-10T06:27:56;8.70;99.90
21306;DHT22;10812;51.838;5.838;2022-11-10T06:30:26;8.70;99.90
21306;DHT22;10812;51.838;5.838;2022-11-10T06:32:54;8.70;99.90
21306;DHT22;10812;51.838;5.838;2022-11-10T06:35:25;8.70;99.90
21306;DHT22;10812;51.838;5.838;2022-11-10T06:37:57;8.80;99.90
21306;DHT22;10812;51.838;5.838;2022-11-10T06:40:25;8.70;99.90
21306;DHT22;10812;51.838;5.838;2022-11-10T06:42:53;8.60;99.90
21306;DHT22;10812;51.838;5.838;2022-11-10T06:45:21;8.60;99.90
21306;DHT22;10812;51.838;5.838;2022-11-10T06:47:58;8.60;99.90
21306;DHT22;10812;51.838;5.838;2022-11-10T06:50:28;8.60;99.90
21306;DHT22;10812;51.838;5.838;2022-11-10T06:52:57;8.60;99.90
21306;DHT22;10812;51.838;5.838;2022-11-10T06:55:25;8.60;99.90
21306;DHT22;10812;51.838;5.838;2022-11-10T06:57:53;8.60;99.90
21306;DHT22;10812;51.838;5.838;2022-11-10T07:00:22;8.60;99.90
21306;DHT22;10812;51.838;5.838;2022-11-10T07:02:58;8.60;99.90
21306;DHT22;10812;51.838;5.838;2022-11-10T07:05:27;8.60;99.90
21306;DHT22;10812;51.838;5.838;2022-11-10T07:08:00;8.70;99.90
21306;DHT22;10812;51.838;5.838;2022-11-10T07:10:28;8.70;99.90
21306;DHT22;10812;51.838;5.838;2022-11-10T07:12:57;8.70;99.90
21306;DHT22;10812;51.838;5.838;2022-11-10T07:15:25;8.70;99.90
21306;DHT22;10812;51.838;5.838;2022-11-10T07:17:53;8.90;99.90
21306;DHT22;10812;51.838;5.838;2022-11-10T07:20:22;8.90;99.90
21306;DHT22;10812;51.838;5.838;2022-11-10T07:22:57;9.00;99.90
21306;DHT22;10812;51.838;5.838;2022-11-10T07:25:27;9.00;99.90
21306;DHT22;10812;51.838;5.838;2022-11-10T07:27:55;9.00;99.90
21306;DHT22;10812;51.838;5.838;2022-11-10T07:30:23;9.00;99.90
21306;DHT22;10812;51.838;5.838;2022-11-10T07:32:59;9.00;99.90
21306;DHT22;10812;51.838;5.838;2022-11-10T07:35:28;9.10;99.90
21306;DHT22;10812;51.838;5.838;2022-11-10T07:38:00;9.10;99.90
21306;DHT22;10812;51.838;5.838;2022-11-10T07:40:29;9.10;99.90
21306;DHT22;10812;51.838;5.838;2022-11-10T07:42:58;9.10;99.90
21306;DHT22;10812;51.838;5.838;2022-11-10T07:45:26;9.20;99.90
21306;DHT22;10812;51.838;5.838;2022-11-10T07:47:57;9.20;99.90
21306;DHT22;10812;51.838;5.838;2022-11-10T07:50:25;9.30;99.90
21306;DHT22;10812;51.838;5.838;2022-11-10T07:53:03;9.40;99.90
21306;DHT22;10812;51.838;5.838;2022-11-10T07:55:32;9.60;99.90
21306;DHT22;10812;51.838;5.838;2022-11-10T07:58:00;9.80;99.90
21306;DHT22;10812;51.838;5.838;2022-11-10T08:00:28;9.80;99.90
21306;DHT22;10812;51.838;5.838;2022-11-10T08:03:00;9.90;99.90
21306;DHT22;10812;51.838;5.838;2022-11-10T08:05:29;10.10;99.90
21306;DHT22;10812;51.838;5.838;2022-11-10T08:07:57;10.60;99.90
21306;DHT22;10812;51.838;5.838;2022-11-10T08:10:28;11.20;99.90
21306;DHT22;10812;51.838;5.838;2022-11-10T08:12:58;11.90;99.90
21306;DHT22;10812;51.838;5.838;2022-11-10T08:15:27;12.40;99.90
21306;DHT22;10812;51.838;5.838;2022-11-10T08:17:59;12.70;99.90
21306;DHT22;10812;51.838;5.838;2022-11-10T08:20:28;13.10;99.90
21306;DHT22;10812;51.838;5.838;2022-11-10T08:22:57;13.20;99.90
21306;DHT22;10812;51.838;5.838;2022-11-10T08:25:28;13.30;99.90
21306;DHT22;10812;51.838;5.838;2022-11-10T08:28:02;13.60;99.90
21306;DHT22;10812;51.838;5.838;2022-11-10T08:30:31;13.80;99.90
21306;DHT22;10812;51.838;5.838;2022-11-10T08:33:00;13.90;99.90
21306;DHT22;10812;51.838;5.838;2022-11-10T08:35:33;13.80;99.90
21306;DHT22;10812;51.838;5.838;2022-11-10T08:38:05;13.80;99.90
21306;DHT22;10812;51.838;5.838;2022-11-10T08:40:37;14.10;99.90
21306;DHT22;10812;51.838;5.838;2022-11-10T08:43:06;14.20;99.90
21306;DHT22;10812;51.838;5.838;2022-11-10T08:45:34;14.20;99.90
21306;DHT22;10812;51.838;5.838;2022-11-10T08:48:04;14.00;99.90
21306;DHT22;10812;51.838;5.838;2022-11-10T08:50:33;14.00;99.90
21306;DHT22;10812;51.838;5.838;2022-11-10T08:56:54;12.80;99.90
21306;DHT22;10812;51.838;5.838;2022-11-10T08:59:22;12.40;99.90
21306;DHT22;10812;51.838;5.838;2022-11-10T09:01:50;12.30;99.90
21306;DHT22;10812;51.838;5.838;2022-11-10T09:04:18;12.20;99.90
21306;DHT22;10812;51.838;5.838;2022-11-10T09:06:46;12.30;99.90
21306;DHT22;10812;51.838;5.838;2022-11-10T09:09:15;12.50;99.90
21306;DHT22;10812;51.838;5.838;2022-11-10T09:11:43;12.70;99.90
21306;DHT22;10812;51.838;5.838;2022-11-10T09:14:12;12.70;99.90
21306;DHT22;10812;51.838;5.838;2022-11-10T09:16:40;12.50;99.90
21306;DHT22;10812;51.838;5.838;2022-11-10T09:19:09;12.50;99.90
21306;DHT22;10812;51.838;5.838;2022-11-10T09:21:44;12.50;99.90
21306;DHT22;10812;51.838;5.838;2022-11-10T09:24:12;12.50;99.90
21306;DHT22;10812;51.838;5.838;2022-11-10T09:26:40;12.50;99.90
21306;DHT22;10812;51.838;5.838;2022-11-10T09:29:12;12.50;99.90
21306;DHT22;10812;51.838;5.838;2022-11-10T09:31:42;12.50;99.90
21306;DHT22;10812;51.838;5.838;2022-11-10T09:34:10;12.50;99.90
21306;DHT22;10812;51.838;5.838;2022-11-10T09:36:39;12.60;99.90
21306;DHT22;10812;51.838;5.838;2022-11-10T09:39:07;12.60;99.90
21306;DHT22;10812;51.838;5.838;2022-11-10T09:41:38;12.60;99.90
21306;DHT22;10812;51.838;5.838;2022-11-10T09:44:13;12.60;99.90
21306;DHT22;10812;51.838;5.838;2022-11-10T09:46:46;12.60;99.90
21306;DHT22;10812;51.838;5.838;2022-11-10T09:49:24;12.60;99.90
21306;DHT22;10812;51.838;5.838;2022-11-10T09:51:57;12.60;99.90
21306;DHT22;10812;51.838;5.838;2022-11-10T09:54:33;12.70;99.90
21306;DHT22;10812;51.838;5.838;2022-11-10T09:57:06;12.70;99.90
21306;DHT22;10812;51.838;5.838;2022-11-10T09:59:36;12.70;99.90
21306;DHT22;10812;51.838;5.838;2022-11-10T10:02:15;12.70;99.90
21306;DHT22;10812;51.838;5.838;2022-11-10T10:07:58;12.90;99.90
21306;DHT22;10812;51.838;5.838;2022-11-10T10:10:33;12.90;99.90
21306;DHT22;10812;51.838;5.838;2022-11-10T10:13:20;13.00;99.90
21306;DHT22;10812;51.838;5.838;2022-11-10T10:16:08;13.00;99.90
21306;DHT22;10812;51.838;5.838;2022-11-10T10:18:44;13.10;99.90
21306;DHT22;10812;51.838;5.838;2022-11-10T10:21:34;13.10;99.90
21306;DHT22;10812;51.838;5.838;2022-11-10T10:24:10;13.10;99.90
21306;DHT22;10812;51.838;5.838;2022-11-10T10:26:51;13.20;99.90
21306;DHT22;10812;51.838;5.838;2022-11-10T10:29:22;13.20;99.90
21306;DHT22;10812;51.838;5.838;2022-11-10T10:31:52;13.20;99.90
21306;DHT22;10812;51.838;5.838;2022-11-10T10:34:25;13.20;99.90
21306;DHT22;10812;51.838;5.838;2022-11-10T10:36:54;13.30;99.90
21306;DHT22;10812;51.838;5.838;2022-11-10T10:39:26;13.30;99.90
21306;DHT22;10812;51.838;5.838;2022-11-10T10:41:57;13.30;99.90
21306;DHT22;10812;51.838;5.838;2022-11-10T10:44:25;13.30;99.90
21306;DHT22;10812;51.838;5.838;2022-11-10T10:46:57;13.40;99.90
21306;DHT22;10812;51.838;5.838;2022-11-10T10:49:26;13.30;99.90
21306;DHT22;10812;51.838;5.838;2022-11-10T10:52:02;13.40;99.90
21306;DHT22;10812;51.838;5.838;2022-11-10T10:54:31;13.50;99.90
21306;DHT22;10812;51.838;5.838;2022-11-10T10:57:02;13.50;99.90
21306;DHT22;10812;51.838;5.838;2022-11-10T10:59:31;13.60;99.90
21306;DHT22;10812;51.838;5.838;2022-11-10T11:02:00;13.70;99.90
21306;DHT22;10812;51.838;5.838;2022-11-10T11:04:31;13.80;99.90
21306;DHT22;10812;51.838;5.838;2022-11-10T11:07:02;13.90;99.90
21306;DHT22;10812;51.838;5.838;2022-11-10T11:09:38;14.00;99.90
21306;DHT22;10812;51.838;5.838;2022-11-10T11:12:10;14.10;99.90
21306;DHT22;10812;51.838;5.838;2022-11-10T11:14:39;14.10;99.90
21306;DHT22;10812;51.838;5.838;2022-11-10T11:17:17;14.20;99.90
21306;DHT22;10812;51.838;5.838;2022-11-10T11:19:48;14.10;99.90
21306;DHT22;10812;51.838;5.838;2022-11-10T11:22:43;14.20;99.90
21306;DHT22;10812;51.838;5.838;2022-11-10T11:25:21;14.20;99.90
21306;DHT22;10812;51.838;5.838;2022-11-10T11:28:01;14.30;99.90
21306;DHT22;10812;51.838;5.838;2022-11-10T11:30:43;14.30;99.90
21306;DHT22;10812;51.838;5.838;2022-11-10T11:33:24;14.40;99.90
21306;DHT22;10812;51.838;5.838;2022-11-10T11:35:59;14.30;99.90
21306;DHT22;10812;51.838;5.838;2022-11-10T11:38:31;14.40;99.90
21306;DHT22;10812;51.838;5.838;2022-11-10T11:41:11;14.40;99.90
21306;DHT22;10812;51.838;5.838;2022-11-10T11:46:45;14.50;99.90
21306;DHT22;10812;51.838;5.838;2022-11-10T11:49:44;14.60;99.90
21306;DHT22;10812;51.838;5.838;2022-11-10T11:52:20;14.70;99.90
21306;DHT22;10812;51.838;5.838;2022-11-10T11:55:02;14.80;99.90
21306;DHT22;10812;51.838;5.838;2022-11-10T11:57:41;14.70;99.90
21306;DHT22;10812;51.838;5.838;2022-11-10T12:00:16;14.90;99.90
21306;DHT22;10812;51.838;5.838;2022-11-10T12:06:09;15.00;99.90
21306;DHT22;10812;51.838;5.838;2022-11-10T12:08:44;15.10;99.90
21306;DHT22;10812;51.838;5.838;2022-11-10T12:11:20;15.10;99.90
21306;DHT22;10812;51.838;5.838;2022-11-10T12:13:59;15.00;99.90
21306;DHT22;10812;51.838;5.838;2022-11-10T12:16:29;15.00;99.90
21306;DHT22;10812;51.838;5.838;2022-11-10T12:19:03;15.10;99.90
21306;DHT22;10812;51.838;5.838;2022-11-10T12:21:39;15.10;99.90
21306;DHT22;10812;51.838;5.838;2022-11-10T12:27:12;15.20;99.90
21306;DHT22;10812;51.838;5.838;2022-11-10T12:29:44;15.10;99.90
21306;DHT22;10812;51.838;5.838;2022-11-10T12:32:18;15.10;99.90
21306;DHT22;10812;51.838;5.838;2022-11-10T12:34:50;15.20;99.90
21306;DHT22;10812;51.838;5.838;2022-11-10T12:37:25;15.20;99.90
21306;DHT22;10812;51.838;5.838;2022-11-10T12:39:59;15.20;99.90
21306;DHT22;10812;51.838;5.838;2022-11-10T12:42:30;15.30;99.90
21306;DHT22;10812;51.838;5.838;2022-11-10T12:45:02;15.40;99.90
21306;DHT22;10812;51.838;5.838;2022-11-10T12:47:34;15.40;99.90
21306;DHT22;10812;51.838;5.838;2022-11-10T12:50:19;15.40;99.90
21306;DHT22;10812;51.838;5.838;2022-11-10T12:52:53;15.40;99.90
21306;DHT22;10812;51.838;5.838;2022-11-10T12:55:28;15.40;99.90
21306;DHT22;10812;51.838;5.838;2022-11-10T12:57:59;15.40;99.90
21306;DHT22;10812;51.838;5.838;2022-11-10T13:00:30;15.20;99.90
21306;DHT22;10812;51.838;5.838;2022-11-10T13:02:59;15.20;99.90
21306;DHT22;10812;51.838;5.838;2022-11-10T13:05:31;15.20;99.90
21306;DHT22;10812;51.838;5.838;2022-11-10T13:08:20;15.20;99.90
21306;DHT22;10812;51.838;5.838;2022-11-10T13:10:53;15.20;99.90
21306;DHT22;10812;51.838;5.838;2022-11-10T13:13:23;15.10;99.90
21306;DHT22;10812;51.838;5.838;2022-11-10T13:15:54;15.10;99.90
21306;DHT22;10812;51.838;5.838;2022-11-10T13:22:01;15.30;99.90
21306;DHT22;10812;51.838;5.838;2022-11-10T13:24:32;15.30;99.90
21306;DHT22;10812;51.838;5.838;2022-11-10T13:27:01;15.30;99.90
21306;DHT22;10812;51.838;5.838;2022-11-10T13:29:32;15.30;99.90
21306;DHT22;10812;51.838;5.838;2022-11-10T13:32:26;15.30;99.90
21306;DHT22;10812;51.838;5.838;2022-11-10T13:38:34;15.10;99.90
21306;DHT22;10812;51.838;5.838;2022-11-10T13:41:29;15.00;99.90
21306;DHT22;10812;51.838;5.838;2022-11-10T13:44:00;15.00;99.90
21306;DHT22;10812;51.838;5.838;2022-11-10T13:46:32;14.90;99.90
21306;DHT22;10812;51.838;5.838;2022-11-10T13:49:31;14.90;99.90
21306;DHT22;10812;51.838;5.838;2022-11-10T13:52:09;14.90;99.90
21306;DHT22;10812;51.838;5.838;2022-11-10T13:54:53;14.90;99.90
21306;DHT22;10812;51.838;5.838;2022-11-10T13:57:28;14.80;99.90
21306;DHT22;10812;51.838;5.838;2022-11-10T13:59:59;14.80;99.90
21306;DHT22;10812;51.838;5.838;2022-11-10T14:02:54;14.70;99.90
21306;DHT22;10812;51.838;5.838;2022-11-10T14:08:27;14.70;99.90
21306;DHT22;10812;51.838;5.838;2022-11-10T14:10:58;14.70;99.90
21306;DHT22;10812;51.838;5.838;2022-11-10T14:13:34;14.70;99.90
21306;DHT22;10812;51.838;5.838;2022-11-10T14:16:14;14.70;99.90
21306;DHT22;10812;51.838;5.838;2022-11-10T14:18:53;14.70;99.90
21306;DHT22;10812;51.838;5.838;2022-11-10T14:21:27;14.70;99.90
21306;DHT22;10812;51.838;5.838;2022-11-10T14:24:03;14.70;99.90
21306;DHT22;10812;51.838;5.838;2022-11-10T14:26:36;14.70;99.90
21306;DHT22;10812;51.838;5.838;2022-11-10T14:29:36;14.60;99.90
21306;DHT22;10812;51.838;5.838;2022-11-10T14:32:13;14.60;99.90
21306;DHT22;10812;51.838;5.838;2022-11-10T14:34:45;14.50;99.90
21306;DHT22;10812;51.838;5.838;2022-11-10T14:37:19;14.50;99.90
21306;DHT22;10812;51.838;5.838;2022-11-10T14:39:51;14.50;99.90
21306;DHT22;10812;51.838;5.838;2022-11-10T14:42:22;14.40;99.90
21306;DHT22;10812;51.838;5.838;2022-11-10T14:45:07;14.40;99.90
21306;DHT22;10812;51.838;5.838;2022-11-10T14:47:35;14.40;99.90
21306;DHT22;10812;51.838;5.838;2022-11-10T14:50:05;14.30;99.90
21306;DHT22;10812;51.838;5.838;2022-11-10T14:52:38;14.30;99.90
21306;DHT22;10812;51.838;5.838;2022-11-10T14:55:12;14.30;99.90
21306;DHT22;10812;51.838;5.838;2022-11-10T14:57:41;14.30;99.90
21306;DHT22;10812;51.838;5.838;2022-11-10T15:00:17;14.20;99.90
21306;DHT22;10812;51.838;5.838;2022-11-10T15:02:46;14.20;99.90
21306;DHT22;10812;51.838;5.838;2022-11-10T15:05:14;14.20;99.90
21306;DHT22;10812;51.838;5.838;2022-11-10T15:07:44;14.10;99.90
21306;DHT22;10812;51.838;5.838;2022-11-10T15:10:16;14.20;99.90
21306;DHT22;10812;51.838;5.838;2022-11-10T15:12:57;14.10;99.90
21306;DHT22;10812;51.838;5.838;2022-11-10T15:15:26;14.10;99.90
21306;DHT22;10812;51.838;5.838;2022-11-10T15:17:55;14.00;99.90
21306;DHT22;10812;51.838;5.838;2022-11-10T15:20:31;14.00;99.90
21306;DHT22;10812;51.838;5.838;2022-11-10T15:23:01;13.90;99.90
21306;DHT22;10812;51.838;5.838;2022-11-10T15:25:33;13.70;99.90
21306;DHT22;10812;51.838;5.838;2022-11-10T15:28:04;13.70;99.90
21306;DHT22;10812;51.838;5.838;2022-11-10T15:30:34;13.60;99.90
21306;DHT22;10812;51.838;5.838;2022-11-10T15:33:08;13.50;99.90
21306;DHT22;10812;51.838;5.838;2022-11-10T15:35:37;13.50;99.90
21306;DHT22;10812;51.838;5.838;2022-11-10T15:38:20;13.40;99.90
21306;DHT22;10812;51.838;5.838;2022-11-10T15:40:55;13.30;99.90
21306;DHT22;10812;51.838;5.838;2022-11-10T15:43:30;13.20;99.90
21306;DHT22;10812;51.838;5.838;2022-11-10T15:46:02;13.20;99.90
21306;DHT22;10812;51.838;5.838;2022-11-10T15:48:46;13.20;99.90
21306;DHT22;10812;51.838;5.838;2022-11-10T15:51:16;13.10;99.90
21306;DHT22;10812;51.838;5.838;2022-11-10T15:53:51;13.00;99.90
21306;DHT22;10812;51.838;5.838;2022-11-10T15:56:21;13.00;99.90
21306;DHT22;10812;51.838;5.838;2022-11-10T15:58:51;12.90;99.90
21306;DHT22;10812;51.838;5.838;2022-11-10T16:01:29;12.70;99.90
21306;DHT22;10812;51.838;5.838;2022-11-10T16:03:57;12.70;99.90
21306;DHT22;10812;51.838;5.838;2022-11-10T16:06:26;12.70;99.90
21306;DHT22;10812;51.838;5.838;2022-11-10T16:08:56;12.60;99.90
21306;DHT22;10812;51.838;5.838;2022-11-10T16:11:24;12.60;99.90
21306;DHT22;10812;51.838;5.838;2022-11-10T16:13:54;12.50;99.90
21306;DHT22;10812;51.838;5.838;2022-11-10T16:16:22;12.50;99.90
21306;DHT22;10812;51.838;5.838;2022-11-10T16:18:53;12.40;99.90
21306;DHT22;10812;51.838;5.838;2022-11-10T16:21:22;12.50;99.90
21306;DHT22;10812;51.838;5.838;2022-11-10T16:23:51;12.60;99.90
21306;DHT22;10812;51.838;5.838;2022-11-10T16:26:21;12.50;99.90
21306;DHT22;10812;51.838;5.838;2022-11-10T16:28:50;12.50;99.90
21306;DHT22;10812;51.838;5.838;2022-11-10T16:31:19;12.40;99.90
21306;DHT22;10812;51.838;5.838;2022-11-10T16:33:48;12.40;99.90
21306;DHT22;10812;51.838;5.838;2022-11-10T16:36:23;12.40;99.90
21306;DHT22;10812;51.838;5.838;2022-11-10T16:38:52;12.30;99.90
21306;DHT22;10812;51.838;5.838;2022-11-10T16:41:20;12.30;99.90
21306;DHT22;10812;51.838;5.838;2022-11-10T16:43:49;12.30;99.90
21306;DHT22;10812;51.838;5.838;2022-11-10T16:46:19;12.10;99.90
21306;DHT22;10812;51.838;5.838;2022-11-10T16:48:50;12.10;99.90
21306;DHT22;10812;51.838;5.838;2022-11-10T16:51:27;12.10;99.90
21306;DHT22;10812;51.838;5.838;2022-11-10T16:53:56;12.10;99.90
21306;DHT22;10812;51.838;5.838;2022-11-10T16:56:25;12.00;99.90